Robert Gray Army Air Field Airport
KGRK : now visible

Airfield :











YOU CAN JOIN US ON...

 
LOGIN :

Register | Disclaimer

   EN    FR    IT 

 









Legend :    VFR   Marginal VFR   IFR   Intensive IFR   Very Intensive IFR
Visi :
Ceiling :
>= 8 km
>= 3000ft
5 to 8 km
1000 to 3000 ft
1500m to 5 km
500 to 1000 ft
800 to 1500m
200 to 500 ft
< 800m
< 200 ft
Symbols :   Thunderstorms  Fog  Heavy snow  Heavy precipitations  Wind > 20 kt







- Airport Elevation : 1015 ft
- IATA code : GRK


KGRK - Robert Gray Army Air Field

CURRENT METAR :
  • 201958Z AUTO 16014KT 10SM BKN065 33/18 A2991 RMK AO2 LTG DSNT SE SLP116 T03320178

EXPIRED METARs :
  • 201941Z AUTO 19016G23KT 10SM FEW065 34/18 A2991 RMK AO2 WSHFT 27 SLP116
  • 201858Z AUTO 16013G23KT 10SM SCT060 34/18 A2993 RMK AO2 LTG DSNT N SLP122 T03390179
  • 201831Z AUTO 13013G20KT 10SM SCT060 33/18 A2994 RMK AO2 WSHFT 17 SLP126
  • 201758Z AUTO 16011G18KT 10SM BKN050 33/19 A2996 RMK AO2 LTG DSNT E SLP133 T03260188 10331 20251 58006

TAF TAF KGRK
Valid from the 20 at 16:00 until the 21 at 22:00 UTC


201600Z 2016/2122 16010G22KT 9999 SCT020 SCT045 QNH2991INS
BECMG 2104/2105 16010KT 9999 BKN010 OVC020 QNH3000INS
BECMG 2115/2116 15010G15KT 9999 SCT040 QNH2999INS TX35/2021Z TN24/2112Z
No reported NOTAMs for that airfield.



MET'MAP, your aeronautical weather chart ! - Copyright ORBIFLY December 2007 - Disclaimer

ORBIFLY MET'MAP TEAM :

Programming & Development : Alexandra Zaïnal
Concept & Development : Baudouin d'Aumeries
Co-Development & Prog : Marc-Olivier Méhu
Technical & hardware support : Manuel Goepfert

Contact : metmap@orbifly.com




SOURCES & CREDITS :

   NOAA       Earth
Advisory